Time;durP1;ratioP1;P1;durP2;ratioP2;P2;SDS_P1;SDS_P2;PMS_P1;PMS_P2;Temp;Humidity;BMP_temperature;BMP_pressure;BME280_temperature;BME280_humidity;BME280_pressure;Samples;Min_cycle;Max_cycle;Signal;HPM_P1;HPM_P2
2023/11/02 00:00:43;;;;;;;2.67;0.45;;;;;;;;;;5053182;28;20024;-85
2023/11/02 00:03:15;;;;;;;1.63;0.57;;;;;;;;;;5053032;28;20491;-86
2023/11/02 00:05:53;;;;;;;1.85;0.50;;;;;;;;;;5051836;28;20431;-85
2023/11/02 00:08:19;;;;;;;4.03;0.70;;;;;;;;;;5052672;28;20051;-85
2023/11/02 00:10:44;;;;;;;4.30;0.75;;;;;;;;;;5052804;28;20021;-85
2023/11/02 00:13:17;;;;;;;5.05;0.65;;;;;;;;;;5052671;28;20024;-86
2023/11/02 00:15:44;;;;;;;3.88;1.02;;;;;;;;;;5053857;28;20029;-86
2023/11/02 00:18:09;;;;;;;1.98;0.47;;;;;;;;;;5052296;28;20384;-86
2023/11/02 00:20:36;;;;;;;5.03;0.50;;;;;;;;;;5052258;28;20025;-86
2023/11/02 00:23:02;;;;;;;2.38;0.40;;;;;;;;;;5054015;28;20041;-85
2023/11/02 00:26:03;;;;;;;3.28;0.63;;;;;;;;;;5052327;28;20075;-85
2023/11/02 00:28:28;;;;;;;4.80;0.70;;;;;;;;;;5023813;28;20484;-85
2023/11/02 00:30:56;;;;;;;2.22;0.43;;;;;;;;;;5039688;28;20087;-84
2023/11/02 00:33:24;;;;;;;2.17;0.60;;;;;;;;;;5052521;28;20016;-85
2023/11/02 00:35:50;;;;;;;4.50;0.55;;;;;;;;;;5052258;28;20079;-85
2023/11/02 00:38:17;;;;;;;4.20;0.68;;;;;;;;;;5051943;28;20032;-85
2023/11/02 00:40:42;;;;;;;2.78;0.60;;;;;;;;;;5053398;28;20013;-85
2023/11/02 00:43:08;;;;;;;0.90;0.38;;;;;;;;;;5053519;28;20009;-85
2023/11/02 00:45:37;;;;;;;7.97;0.70;;;;;;;;;;5052158;28;20460;-85
2023/11/02 00:48:03;;;;;;;5.35;0.95;;;;;;;;;;5051865;28;20035;-85
2023/11/02 00:50:48;;;;;;;12.65;0.93;;;;;;;;;;5048543;28;20108;-85
2023/11/02 00:53:13;;;;;;;3.47;0.57;;;;;;;;;;5051499;28;20070;-86
2023/11/02 00:55:39;;;;;;;3.50;0.47;;;;;;;;;;5052133;28;20116;-85
2023/11/02 00:58:16;;;;;;;1.30;0.38;;;;;;;;;;5051772;28;20117;-85
2023/11/02 01:00:53;;;;;;;6.38;0.60;;;;;;;;;;5051740;28;20391;-86
2023/11/02 01:03:22;;;;;;;8.45;1.20;;;;;;;;;;5051808;28;20024;-85
2023/11/02 01:05:47;;;;;;;4.88;0.40;;;;;;;;;;5051831;28;20028;-85
2023/11/02 01:08:13;;;;;;;10.57;1.02;;;;;;;;;;5051856;28;20021;-85
2023/11/02 01:10:39;;;;;;;3.83;0.73;;;;;;;;;;5053103;28;20044;-84
2023/11/02 01:13:08;;;;;;;5.45;0.40;;;;;;;;;;5051540;28;20025;-85
2023/11/02 01:15:43;;;;;;;3.00;0.65;;;;;;;;;;5052698;28;20431;-85
2023/11/02 01:18:12;;;;;;;2.38;0.50;;;;;;;;;;5051659;28;20404;-85
2023/11/02 01:20:43;;;;;;;2.53;0.60;;;;;;;;;;5051566;28;20044;-85
2023/11/02 01:23:15;;;;;;;2.58;0.50;;;;;;;;;;5051409;28;20096;-85
2023/11/02 01:25:41;;;;;;;;;;;;;;;;;;5040853;28;20028;-85
2023/11/02 01:28:07;;;;;;;8.48;0.52;;;;;;;;;;5060957;28;19915;-85
2023/11/02 01:30:35;;;;;;;2.13;0.30;;;;;;;;;;5051321;28;20114;-85
2023/11/02 01:33:04;;;;;;;1.92;0.43;;;;;;;;;;5052946;28;20024;-85
2023/11/02 01:35:40;;;;;;;2.28;0.40;;;;;;;;;;5051484;28;20095;-85
2023/11/02 01:38:06;;;;;;;1.27;0.40;;;;;;;;;;5051393;28;20090;-85
2023/11/02 01:40:36;;;;;;;1.27;0.25;;;;;;;;;;5051015;28;20505;-85
2023/11/02 01:43:05;;;;;;;3.72;0.38;;;;;;;;;;5051323;28;20548;-84
2023/11/02 01:45:33;;;;;;;1.42;0.40;;;;;;;;;;5051385;28;20317;-85
2023/11/02 01:47:58;;;;;;;4.43;0.57;;;;;;;;;;5051030;28;20104;-84
2023/11/02 01:50:33;;;;;;;3.50;0.30;;;;;;;;;;5041017;28;20103;-85
2023/11/02 01:53:10;;;;;;;6.22;0.68;;;;;;;;;;5050046;28;20017;-85
2023/11/02 01:55:42;;;;;;;3.63;0.50;;;;;;;;;;5052290;28;20025;-85
2023/11/02 01:58:16;;;;;;;3.97;1.13;;;;;;;;;;5059941;28;20020;-85
2023/11/02 02:00:57;;;;;;;0.35;0.17;;;;;;;;;;5072643;28;20052;-85
2023/11/02 02:03:30;;;;;;;4.05;0.50;;;;;;;;;;5049454;28;20021;-84
2023/11/02 02:06:01;;;;;;;2.45;0.40;;;;;;;;;;5062204;28;20355;-84
2023/11/02 02:08:34;;;;;;;3.72;0.40;;;;;;;;;;5060833;28;20376;-84
2023/11/02 02:11:18;;;;;;;2.55;0.52;;;;;;;;;;5055658;28;20353;-85
2023/11/02 02:13:49;;;;;;;1.38;0.50;;;;;;;;;;5057749;28;20423;-85
2023/11/02 02:16:26;;;;;;;1.70;0.37;;;;;;;;;;5064775;28;20108;-85
2023/11/02 02:19:03;;;;;;;5.88;0.60;;;;;;;;;;5044126;28;20296;-85
2023/11/02 02:21:29;;;;;;;2.22;0.60;;;;;;;;;;5040434;28;20024;-85
2023/11/02 02:24:05;;;;;;;5.60;0.45;;;;;;;;;;5051013;28;20021;-87
2023/11/02 02:26:54;;;;;;;2.35;0.38;;;;;;;;;;5057473;28;20361;-85
2023/11/02 02:29:46;;;;;;;1.80;0.40;;;;;;;;;;5060021;28;20024;-86
2023/11/02 02:32:35;;;;;;;3.70;0.43;;;;;;;;;;5072908;28;20369;-86
2023/11/02 02:35:07;;;;;;;2.10;0.40;;;;;;;;;;5055200;28;20261;-86
2023/11/02 02:37:32;;;;;;;;;;;;;;;;;;5055141;28;20518;-86
2023/11/02 02:40:05;;;;;;;0.32;0.10;;;;;;;;;;5054534;28;20318;-86
2023/11/02 02:42:33;;;;;;;10.45;0.40;;;;;;;;;;5053626;28;20269;-85
2023/11/02 02:45:03;;;;;;;2.47;0.32;;;;;;;;;;5054511;28;20428;-85
2023/11/02 02:47:29;;;;;;;0.65;0.20;;;;;;;;;;5064844;28;20066;-85
2023/11/02 02:49:56;;;;;;;0.43;0.13;;;;;;;;;;5060016;28;20472;-86
2023/11/02 02:52:22;;;;;;;5.43;0.50;;;;;;;;;;5065802;28;20025;-87
2023/11/02 02:54:52;;;;;;;4.43;0.73;;;;;;;;;;5054685;28;20504;-87
2023/11/02 02:57:18;;;;;;;5.53;0.55;;;;;;;;;;5068613;28;20044;-86
2023/11/02 02:59:46;;;;;;;0.98;0.30;;;;;;;;;;5054096;28;20427;-85
2023/11/02 03:02:13;;;;;;;3.33;0.30;;;;;;;;;;5059105;28;20022;-86
2023/11/02 03:04:39;;;;;;;0.57;0.10;;;;;;;;;;5062407;28;20044;-86
2023/11/02 03:07:06;;;;;;;1.92;0.40;;;;;;;;;;5068007;28;20537;-85
2023/11/02 03:09:36;;;;;;;3.50;0.50;;;;;;;;;;5062808;28;20024;-86
2023/11/02 03:12:03;;;;;;;7.28;0.50;;;;;;;;;;5061636;28;20048;-86
2023/11/02 03:14:30;;;;;;;2.42;0.40;;;;;;;;;;5066348;28;20024;-85
2023/11/02 03:16:57;;;;;;;2.38;0.40;;;;;;;;;;5053693;28;20040;-85
2023/11/02 03:19:45;;;;;;;1.02;0.20;;;;;;;;;;5059301;28;20017;-85
2023/11/02 03:22:12;;;;;;;0.20;0.13;;;;;;;;;;5070035;28;20031;-86
2023/11/02 03:24:44;;;;;;;0.52;0.20;;;;;;;;;;5053828;28;20445;-86
2023/11/02 03:27:21;;;;;;;1.80;0.45;;;;;;;;;;5055650;28;20528;-86
2023/11/02 03:29:51;;;;;;;2.00;0.30;;;;;;;;;;5050313;28;20380;-86
2023/11/02 03:32:25;;;;;;;5.25;0.32;;;;;;;;;;5047766;28;20086;-86
2023/11/02 03:34:58;;;;;;;5.35;0.28;;;;;;;;;;5054942;28;20070;-86
2023/11/02 03:37:37;;;;;;;1.70;0.30;;;;;;;;;;5067679;28;20032;-86
2023/11/02 03:40:35;;;;;;;0.68;0.10;;;;;;;;;;5073637;28;20459;-86
2023/11/02 03:43:19;;;;;;;2.40;0.30;;;;;;;;;;5020400;28;20338;-86
2023/11/02 03:45:56;;;;;;;1.67;0.30;;;;;;;;;;5066381;28;20064;-86
2023/11/02 03:48:41;;;;;;;1.77;0.13;;;;;;;;;;5071668;28;20051;-86
2023/11/02 03:51:13;;;;;;;3.67;0.40;;;;;;;;;;5059433;28;20124;-86
2023/11/02 03:53:38;;;;;;;;;;;;;;;;;;5061062;28;20028;-86
2023/11/02 03:56:11;;;;;;;2.72;0.60;;;;;;;;;;5074399;28;19922;-86
2023/11/02 03:58:55;;;;;;;2.72;0.43;;;;;;;;;;5049961;28;20456;-86
2023/11/02 04:01:33;;;;;;;1.38;0.20;;;;;;;;;;5055040;28;20023;-86
2023/11/02 04:04:02;;;;;;;1.48;0.52;;;;;;;;;;5071558;28;20020;-85
2023/11/02 04:06:38;;;;;;;4.45;0.63;;;;;;;;;;5058103;28;20092;-86
2023/11/02 04:09:04;;;;;;;0.00;0.00;;;;;;;;;;5071623;28;20025;-86
2023/11/02 04:11:32;;;;;;;2.30;0.30;;;;;;;;;;5073184;28;20027;-86
2023/11/02 04:14:16;;;;;;;0.80;0.20;;;;;;;;;;5058413;28;20020;-86
2023/11/02 04:16:41;;;;;;;10.80;0.88;;;;;;;;;;5072631;28;20471;-85
2023/11/02 04:19:12;;;;;;;1.25;0.22;;;;;;;;;;5059449;28;20024;-86
2023/11/02 04:21:39;;;;;;;1.35;0.30;;;;;;;;;;5063659;28;20028;-86
2023/11/02 04:24:04;;;;;;;4.30;0.52;;;;;;;;;;5055008;28;20020;-86
2023/11/02 04:26:31;;;;;;;0.85;0.10;;;;;;;;;;5064181;28;20028;-86
2023/11/02 04:28:56;;;;;;;0.10;0.10;;;;;;;;;;5053155;28;20116;-87
2023/11/02 04:31:22;;;;;;;0.15;0.13;;;;;;;;;;5054429;28;20117;-87
2023/11/02 04:33:47;;;;;;;0.57;0.10;;;;;;;;;;5064894;28;20028;-85
2023/11/02 04:36:12;;;;;;;1.17;0.20;;;;;;;;;;5067836;28;20035;-87
2023/11/02 04:38:37;;;;;;;2.25;0.32;;;;;;;;;;5052076;28;20033;-86
2023/11/02 04:41:03;;;;;;;1.17;0.40;;;;;;;;;;5054258;28;20039;-85
2023/11/02 04:43:28;;;;;;;4.20;0.40;;;;;;;;;;5061662;28;20126;-86
2023/11/02 04:45:53;;;;;;;2.13;0.40;;;;;;;;;;5067702;28;20367;-86
2023/11/02 04:48:19;;;;;;;3.60;0.25;;;;;;;;;;5053735;28;20024;-86
2023/11/02 04:50:45;;;;;;;2.35;0.38;;;;;;;;;;5051752;28;20024;-86
2023/11/02 04:53:10;;;;;;;1.60;0.28;;;;;;;;;;5052075;28;20036;-86
2023/11/02 04:55:35;;;;;;;1.27;0.20;;;;;;;;;;5052154;28;20116;-84
2023/11/02 04:58:01;;;;;;;2.80;0.20;;;;;;;;;;5057882;28;20037;-86
2023/11/02 05:00:26;;;;;;;0.65;0.13;;;;;;;;;;5052274;28;20043;-86
2023/11/02 05:02:51;;;;;;;2.45;0.40;;;;;;;;;;5056482;28;20078;-86
2023/11/02 05:05:18;;;;;;;0.60;0.20;;;;;;;;;;5067569;28;20025;-85
2023/11/02 05:07:43;;;;;;;2.50;0.20;;;;;;;;;;5063960;28;20040;-86
2023/11/02 05:10:08;;;;;;;2.28;0.40;;;;;;;;;;5065813;28;20021;-86
2023/11/02 05:12:34;;;;;;;0.38;0.05;;;;;;;;;;5052183;28;20021;-86
2023/11/02 05:14:59;;;;;;;0.30;0.30;;;;;;;;;;5051461;28;20397;-86
2023/11/02 05:17:24;;;;;;;1.15;0.15;;;;;;;;;;5066470;28;20032;-85
2023/11/02 05:19:49;;;;;;;1.50;0.30;;;;;;;;;;5061051;28;20029;-85
2023/11/02 05:22:15;;;;;;;1.63;0.50;;;;;;;;;;5056235;28;20126;-86
2023/11/02 05:24:40;;;;;;;0.20;0.20;;;;;;;;;;5059345;28;20021;-85
2023/11/02 05:27:06;;;;;;;1.95;0.15;;;;;;;;;;5055305;28;20028;-86
2023/11/02 05:29:31;;;;;;;1.40;0.10;;;;;;;;;;5064567;28;20134;-85
2023/11/02 05:31:56;;;;;;;4.88;0.30;;;;;;;;;;5064209;28;20151;-84
2023/11/02 05:34:22;;;;;;;0.17;0.10;;;;;;;;;;5056924;28;20028;-84
2023/11/02 05:36:47;;;;;;;1.48;0.30;;;;;;;;;;5072551;28;20043;-84
2023/11/02 05:39:13;;;;;;;1.33;0.17;;;;;;;;;;5066520;28;20032;-84
2023/11/02 05:41:41;;;;;;;0.30;0.13;;;;;;;;;;5058253;28;20024;-85
2023/11/02 05:44:06;;;;;;;1.90;0.30;;;;;;;;;;5066791;28;20101;-85
2023/11/02 05:46:31;;;;;;;1.10;0.20;;;;;;;;;;5060153;28;20472;-85
2023/11/02 05:48:57;;;;;;;0.00;0.00;;;;;;;;;;5059908;28;20021;-85
2023/11/02 05:51:25;;;;;;;4.03;0.50;;;;;;;;;;5065567;28;20091;-85
2023/11/02 05:53:51;;;;;;;0.65;0.10;;;;;;;;;;5051262;28;20496;-85
2023/11/02 05:56:16;;;;;;;2.40;0.40;;;;;;;;;;5052873;28;20071;-85
2023/11/02 05:58:42;;;;;;;5.70;0.65;;;;;;;;;;5064614;28;20472;-85
2023/11/02 06:01:07;;;;;;;1.50;0.47;;;;;;;;;;5057518;28;20021;-85
2023/11/02 06:03:35;;;;;;;6.40;0.65;;;;;;;;;;5072639;28;20468;-84
2023/11/02 06:06:00;;;;;;;1.23;0.22;;;;;;;;;;5066868;28;20447;-85
2023/11/02 06:08:26;;;;;;;0.35;0.10;;;;;;;;;;5075006;28;20051;-86
2023/11/02 06:10:54;;;;;;;1.45;0.20;;;;;;;;;;5055041;28;20025;-85
2023/11/02 06:13:24;;;;;;;1.13;0.50;;;;;;;;;;5066684;28;20085;-85
2023/11/02 06:15:50;;;;;;;1.20;0.30;;;;;;;;;;5057155;28;20028;-85
2023/11/02 06:18:15;;;;;;;0.17;0.17;;;;;;;;;;5065446;28;20050;-87
2023/11/02 06:20:41;;;;;;;0.22;0.13;;;;;;;;;;5061971;28;20096;-86
2023/11/02 06:23:06;;;;;;;2.28;0.40;;;;;;;;;;5067903;28;20061;-84
2023/11/02 06:25:32;;;;;;;2.40;0.13;;;;;;;;;;5057127;28;20124;-86
2023/11/02 06:27:57;;;;;;;0.52;0.30;;;;;;;;;;5054720;28;20025;-85
2023/11/02 06:30:22;;;;;;;0.25;0.10;;;;;;;;;;5055014;28;20039;-85
2023/11/02 06:32:48;;;;;;;5.35;0.50;;;;;;;;;;5066401;28;20159;-85
2023/11/02 06:35:14;;;;;;;1.88;0.30;;;;;;;;;;5054685;28;20048;-84
2023/11/02 06:37:58;;;;;;;0.63;0.20;;;;;;;;;;5054965;28;20033;-85
2023/11/02 06:40:24;;;;;;;0.75;0.30;;;;;;;;;;5054429;28;20626;-85
2023/11/02 06:42:50;;;;;;;2.40;0.40;;;;;;;;;;5071545;28;20218;-85
2023/11/02 06:45:18;;;;;;;1.05;0.25;;;;;;;;;;5070971;28;20024;-85
2023/11/02 06:47:44;;;;;;;2.83;0.32;;;;;;;;;;5055478;28;20472;-84
2023/11/02 06:50:09;;;;;;;0.43;0.20;;;;;;;;;;5054030;28;20017;-84
2023/11/02 06:52:35;;;;;;;3.35;0.45;;;;;;;;;;5053365;28;20028;-86
2023/11/02 06:55:01;;;;;;;7.78;0.52;;;;;;;;;;5059797;28;20013;-86
2023/11/02 06:57:26;;;;;;;1.83;0.20;;;;;;;;;;5054517;28;20052;-87
2023/11/02 06:59:51;;;;;;;1.30;0.20;;;;;;;;;;5054212;28;20028;-87
2023/11/02 07:02:17;;;;;;;0.22;0.10;;;;;;;;;;5057335;28;20078;-86
2023/11/02 07:04:42;;;;;;;1.05;0.40;;;;;;;;;;5053840;28;20048;-86
2023/11/02 07:07:10;;;;;;;0.50;0.03;;;;;;;;;;5056752;28;20009;-87
2023/11/02 07:09:38;;;;;;;1.25;0.30;;;;;;;;;;5055190;28;20025;-86
2023/11/02 07:12:03;;;;;;;0.63;0.20;;;;;;;;;;5055848;28;20400;-86
2023/11/02 07:14:29;;;;;;;1.02;0.20;;;;;;;;;;5073775;28;20028;-86
2023/11/02 07:16:54;;;;;;;4.57;0.28;;;;;;;;;;5060837;28;20056;-86
2023/11/02 07:19:19;;;;;;;1.02;0.20;;;;;;;;;;5053777;28;20033;-86
2023/11/02 07:21:44;;;;;;;1.65;0.40;;;;;;;;;;5054358;28;20028;-86
2023/11/02 07:24:09;;;;;;;1.73;0.30;;;;;;;;;;5055056;28;20021;-86
2023/11/02 07:26:38;;;;;;;1.13;0.20;;;;;;;;;;5053150;28;20124;-87
2023/11/02 07:29:03;;;;;;;2.53;0.50;;;;;;;;;;5054309;28;20028;-86
2023/11/02 07:31:28;;;;;;;4.43;0.50;;;;;;;;;;5053689;28;20578;-87
2023/11/02 07:33:54;;;;;;;3.78;0.63;;;;;;;;;;5065986;28;20020;-85
2023/11/02 07:36:20;;;;;;;2.67;0.50;;;;;;;;;;5053690;28;20028;-86
2023/11/02 07:38:45;;;;;;;4.82;0.45;;;;;;;;;;5053440;28;20044;-85
2023/11/02 07:41:11;;;;;;;0.65;0.20;;;;;;;;;;5070785;28;20111;-87
2023/11/02 07:43:36;;;;;;;4.75;0.55;;;;;;;;;;5064226;28;20051;-86
2023/11/02 07:46:02;;;;;;;6.03;0.60;;;;;;;;;;5053504;28;20052;-84
2023/11/02 07:48:30;;;;;;;1.80;0.50;;;;;;;;;;5054381;28;20021;-85
2023/11/02 07:50:55;;;;;;;0.00;0.00;;;;;;;;;;5066747;28;20021;-87
2023/11/02 07:53:21;;;;;;;0.20;0.20;;;;;;;;;;5053982;28;20032;-86
2023/11/02 07:55:46;;;;;;;1.23;0.32;;;;;;;;;;5053353;28;20112;-85
2023/11/02 07:58:11;;;;;;;4.45;0.70;;;;;;;;;;5066674;28;20107;-86
2023/11/02 08:00:37;;;;;;;3.95;0.57;;;;;;;;;;5063910;28;20028;-86
2023/11/02 08:03:03;;;;;;;2.20;0.25;;;;;;;;;;5054168;28;20020;-86
2023/11/02 08:05:28;;;;;;;2.10;0.50;;;;;;;;;;5070169;28;20402;-86
2023/11/02 08:07:53;;;;;;;2.78;0.60;;;;;;;;;;5054769;28;20021;-86
2023/11/02 08:10:19;;;;;;;8.00;0.73;;;;;;;;;;5068283;28;20325;-86
2023/11/02 08:12:44;;;;;;;1.98;0.55;;;;;;;;;;5064983;28;20082;-87
2023/11/02 08:15:09;;;;;;;3.92;0.90;;;;;;;;;;5066279;28;20021;-86
2023/11/02 08:17:35;;;;;;;8.98;0.52;;;;;;;;;;5068383;28;20044;-86
2023/11/02 08:20:00;;;;;;;4.18;0.55;;;;;;;;;;5064004;28;20106;-85
2023/11/02 08:22:28;;;;;;;5.68;0.50;;;;;;;;;;5072999;28;20048;-85
2023/11/02 08:24:56;;;;;;;1.65;0.40;;;;;;;;;;5065999;28;20085;-85
2023/11/02 08:27:22;;;;;;;4.05;0.50;;;;;;;;;;5052559;28;20024;-85
2023/11/02 08:29:50;;;;;;;1.52;0.20;;;;;;;;;;5053018;28;20025;-85
2023/11/02 08:32:15;;;;;;;3.42;0.70;;;;;;;;;;5053030;28;20032;-85
2023/11/02 08:34:41;;;;;;;2.28;0.40;;;;;;;;;;5059089;28;20016;-85
2023/11/02 08:37:08;;;;;;;3.47;0.45;;;;;;;;;;5072080;28;20024;-86
2023/11/02 08:39:35;;;;;;;0.57;0.30;;;;;;;;;;5058014;28;20028;-87
2023/11/02 08:42:01;;;;;;;4.93;0.32;;;;;;;;;;5062158;28;20017;-85
2023/11/02 08:44:26;;;;;;;3.30;0.63;;;;;;;;;;5063063;28;20027;-85
2023/11/02 08:46:53;;;;;;;2.33;0.22;;;;;;;;;;5060195;28;20040;-86
2023/11/02 08:49:21;;;;;;;8.27;0.50;;;;;;;;;;5072218;28;20357;-86
2023/11/02 08:51:46;;;;;;;3.35;0.68;;;;;;;;;;5054794;28;20031;-86
2023/11/02 08:54:11;;;;;;;3.58;0.80;;;;;;;;;;5052100;28;20111;-86
2023/11/02 08:56:37;;;;;;;7.22;1.10;;;;;;;;;;5066188;28;20021;-86
2023/11/02 08:59:02;;;;;;;4.60;0.82;;;;;;;;;;5051993;28;20043;-87
2023/11/02 09:01:28;;;;;;;6.18;0.77;;;;;;;;;;5066181;28;20027;-87
2023/11/02 09:03:55;;;;;;;4.82;0.50;;;;;;;;;;5060468;28;20103;-85
2023/11/02 09:06:21;;;;;;;4.38;0.50;;;;;;;;;;5071590;28;20024;-85
2023/11/02 09:08:47;;;;;;;4.90;0.57;;;;;;;;;;5071795;28;20077;-85
2023/11/02 09:11:12;;;;;;;0.93;0.30;;;;;;;;;;5063088;28;20021;-86
2023/11/02 09:13:38;;;;;;;5.13;0.85;;;;;;;;;;5056665;28;20033;-85
2023/11/02 09:16:04;;;;;;;4.57;0.50;;;;;;;;;;5058299;28;20059;-87
2023/11/02 09:18:30;;;;;;;3.03;0.60;;;;;;;;;;5070289;28;20044;-86
2023/11/02 09:20:55;;;;;;;1.40;0.20;;;;;;;;;;5056916;28;20028;-86
2023/11/02 09:23:26;;;;;;;4.63;0.47;;;;;;;;;;5061937;28;20468;-86
2023/11/02 09:25:51;;;;;;;7.75;0.77;;;;;;;;;;5051889;28;20364;-86
2023/11/02 09:28:16;;;;;;;2.25;0.47;;;;;;;;;;5051550;28;20112;-86
2023/11/02 09:30:43;;;;;;;6.72;1.00;;;;;;;;;;5051473;28;20171;-85
2023/11/02 09:33:08;;;;;;;2.25;0.40;;;;;;;;;;5058524;28;20116;-86
2023/11/02 09:35:33;;;;;;;6.93;1.17;;;;;;;;;;5058821;28;20060;-86
2023/11/02 09:37:59;;;;;;;5.93;0.55;;;;;;;;;;5062547;28;20012;-85
2023/11/02 09:40:24;;;;;;;5.38;1.48;;;;;;;;;;5055576;28;20036;-86
2023/11/02 09:42:50;;;;;;;8.20;2.28;;;;;;;;;;5057027;28;20017;-86
2023/11/02 09:45:15;;;;;;;5.10;0.75;;;;;;;;;;5055334;28;20024;-85
2023/11/02 09:47:41;;;;;;;8.80;0.88;;;;;;;;;;5056629;28;20062;-85
2023/11/02 09:50:08;;;;;;;3.80;0.70;;;;;;;;;;5061801;28;20165;-85
2023/11/02 09:52:34;;;;;;;11.98;0.43;;;;;;;;;;5055357;28;20029;-85
2023/11/02 09:55:00;;;;;;;6.43;1.00;;;;;;;;;;5056707;28;20013;-87
2023/11/02 09:57:25;;;;;;;7.43;1.05;;;;;;;;;;5062868;28;20025;-89
2023/11/02 09:59:53;;;;;;;4.85;0.90;;;;;;;;;;5057112;28;20025;-90
2023/11/02 10:02:22;;;;;;;3.90;0.75;;;;;;;;;;5058886;28;20035;-93
2023/11/02 10:04:47;;;;;;;5.38;0.80;;;;;;;;;;5061627;28;20028;-92
2023/11/02 10:07:12;;;;;;;7.22;0.95;;;;;;;;;;5066240;28;20025;-93
2023/11/02 10:09:38;;;;;;;2.25;0.65;;;;;;;;;;5066050;28;20086;-95
2023/11/02 10:12:04;;;;;;;3.40;0.55;;;;;;;;;;5064585;28;20079;-91
2023/11/02 10:14:31;;;;;;;2.35;0.32;;;;;;;;;;5063376;28;20108;-90
2023/11/02 10:17:03;;;;;;;7.32;0.63;;;;;;;;;;5049053;28;20036;-89
2023/11/02 10:19:31;;;;;;;10.40;1.00;;;;;;;;;;5047407;28;20483;-82
2023/11/02 10:21:57;;;;;;;4.85;0.73;;;;;;;;;;5067905;28;20020;-80
2023/11/02 10:24:30;;;;;;;5.32;0.73;;;;;;;;;;5055082;28;20020;-82
2023/11/02 10:26:56;;;;;;;4.57;0.60;;;;;;;;;;5053524;28;20180;-83
2023/11/02 10:29:21;;;;;;;9.50;1.02;;;;;;;;;;5058841;28;20075;-82
2023/11/02 10:31:51;;;;;;;4.13;0.32;;;;;;;;;;5064364;28;20528;-82
2023/11/02 10:34:16;;;;;;;4.25;0.70;;;;;;;;;;5053195;28;20024;-82
2023/11/02 10:36:41;;;;;;;8.52;1.35;;;;;;;;;;5053235;28;20120;-81
2023/11/02 10:39:08;;;;;;;14.88;1.10;;;;;;;;;;5067291;28;20029;-81
2023/11/02 10:41:34;;;;;;;8.07;1.45;;;;;;;;;;5048011;28;20471;-82
2023/11/02 10:44:08;;;;;;;5.22;1.00;;;;;;;;;;5066966;28;20029;-82
2023/11/02 10:46:34;;;;;;;7.07;0.95;;;;;;;;;;5066535;28;20150;-82
2023/11/02 10:49:00;;;;;;;6.07;0.77;;;;;;;;;;5062800;28;20098;-82
2023/11/02 10:51:30;;;;;;;4.10;1.00;;;;;;;;;;5054181;28;20163;-82
2023/11/02 10:54:07;;;;;;;7.30;0.98;;;;;;;;;;5073319;28;20055;-82
2023/11/02 10:56:41;;;;;;;10.13;0.90;;;;;;;;;;5072016;28;20048;-81
2023/11/02 10:59:10;;;;;;;6.32;0.90;;;;;;;;;;5053340;28;20135;-81
2023/11/02 11:01:35;;;;;;;4.65;0.63;;;;;;;;;;5057601;28;20341;-82
2023/11/02 11:04:01;;;;;;;7.05;1.00;;;;;;;;;;5068591;28;20028;-81
2023/11/02 11:06:27;;;;;;;7.38;0.50;;;;;;;;;;5056802;28;20491;-81
2023/11/02 11:08:55;;;;;;;13.13;1.63;;;;;;;;;;5067359;28;20569;-84
2023/11/02 11:11:20;;;;;;;5.70;0.95;;;;;;;;;;5062859;28;20355;-83
2023/11/02 11:13:46;;;;;;;8.63;1.23;;;;;;;;;;5057513;28;20027;-83
2023/11/02 11:16:13;;;;;;;5.85;0.80;;;;;;;;;;5055272;28;20104;-84
2023/11/02 11:18:39;;;;;;;7.40;1.02;;;;;;;;;;5057007;28;20033;-84
2023/11/02 11:21:05;;;;;;;7.45;1.25;;;;;;;;;;5073198;28;20016;-84
2023/11/02 11:23:34;;;;;;;4.63;0.73;;;;;;;;;;5073368;28;20029;-85
2023/11/02 11:26:00;;;;;;;3.38;0.38;;;;;;;;;;5066352;28;20025;-84
2023/11/02 11:28:29;;;;;;;3.70;0.50;;;;;;;;;;5060088;28;20076;-84
2023/11/02 11:30:55;;;;;;;6.85;0.70;;;;;;;;;;5056428;28;20667;-86
2023/11/02 11:33:39;;;;;;;0.60;0.35;;;;;;;;;;5068933;28;20017;-87
2023/11/02 11:36:21;;;;;;;6.45;0.38;;;;;;;;;;5068701;28;20021;-86
2023/11/02 11:38:46;;;;;;;0.22;0.20;;;;;;;;;;5055036;28;20017;-86
2023/11/02 11:41:30;;;;;;;5.30;0.95;;;;;;;;;;5067719;28;20053;-85
2023/11/02 11:44:03;;;;;;;8.98;1.08;;;;;;;;;;5053465;28;20017;-85
2023/11/02 11:46:44;;;;;;;5.28;1.15;;;;;;;;;;5058519;28;20031;-85
2023/11/02 11:49:44;;;;;;;5.60;1.02;;;;;;;;;;5061350;28;20013;-85
2023/11/02 11:52:22;;;;;;;8.50;1.17;;;;;;;;;;5021302;28;20033;-85
2023/11/02 11:54:47;;;;;;;7.05;0.90;;;;;;;;;;5044445;28;20496;-85
2023/11/02 11:57:31;;;;;;;9.82;0.52;;;;;;;;;;5071791;28;20036;-85
2023/11/02 11:59:56;;;;;;;3.33;0.60;;;;;;;;;;5042896;28;20029;-86
2023/11/02 12:02:31;;;;;;;4.20;0.90;;;;;;;;;;5061778;28;20375;-87
2023/11/02 12:04:56;;;;;;;4.05;0.90;;;;;;;;;;5054286;28;20013;-88
2023/11/02 12:07:24;;;;;;;2.92;0.65;;;;;;;;;;5059078;28;20013;-85
2023/11/02 12:09:50;;;;;;;4.20;0.60;;;;;;;;;;5062242;28;20116;-85
2023/11/02 12:12:15;;;;;;;3.60;0.50;;;;;;;;;;5085031;28;20021;-85
2023/11/02 12:14:40;;;;;;;5.82;0.73;;;;;;;;;;5058630;28;20051;-87
2023/11/02 12:17:06;;;;;;;7.53;0.88;;;;;;;;;;5060310;28;20020;-85
2023/11/02 12:19:49;;;;;;;9.30;0.88;;;;;;;;;;5058878;28;20025;-86
2023/11/02 12:22:15;;;;;;;8.85;0.90;;;;;;;;;;5058988;28;20012;-86
2023/11/02 12:24:40;;;;;;;6.63;0.80;;;;;;;;;;5058771;28;20456;-85
2023/11/02 12:27:12;;;;;;;2.63;0.60;;;;;;;;;;5053487;28;20024;-86
2023/11/02 12:29:37;;;;;;;1.55;0.30;;;;;;;;;;5048324;28;20476;-85
2023/11/02 12:32:03;;;;;;;11.10;1.17;;;;;;;;;;5042747;28;20029;-88
2023/11/02 12:34:28;;;;;;;6.18;0.80;;;;;;;;;;5050151;28;20476;-86
2023/11/02 12:36:54;;;;;;;3.20;0.40;;;;;;;;;;5050321;28;20036;-86
2023/11/02 12:39:21;;;;;;;4.00;0.50;;;;;;;;;;5052635;28;20016;-88
2023/11/02 12:41:47;;;;;;;6.03;1.23;;;;;;;;;;5054467;28;20025;-86
2023/11/02 12:44:16;;;;;;;8.00;0.52;;;;;;;;;;5053489;28;20099;-85
2023/11/02 12:46:48;;;;;;;9.00;1.13;;;;;;;;;;5043170;28;20104;-87
2023/11/02 12:49:32;;;;;;;3.30;0.50;;;;;;;;;;5066022;28;20095;-86
2023/11/02 12:52:00;;;;;;;2.63;0.47;;;;;;;;;;5061093;28;20036;-85
2023/11/02 12:54:26;;;;;;;5.68;0.75;;;;;;;;;;5072160;28;20020;-86
2023/11/02 12:56:55;;;;;;;3.80;0.80;;;;;;;;;;5056182;28;20047;-85
2023/11/02 12:59:24;;;;;;;4.28;0.80;;;;;;;;;;5051555;28;20092;-86
2023/11/02 13:02:01;;;;;;;1.23;0.52;;;;;;;;;;5060947;28;20445;-86
2023/11/02 13:04:46;;;;;;;6.32;0.70;;;;;;;;;;5052185;28;20039;-87
2023/11/02 13:07:32;;;;;;;1.38;0.30;;;;;;;;;;5066409;28;20063;-86
2023/11/02 13:10:01;;;;;;;5.82;0.77;;;;;;;;;;5052276;28;20043;-86
2023/11/02 13:12:27;;;;;;;5.75;0.55;;;;;;;;;;5051305;28;20035;-88
2023/11/02 13:14:52;;;;;;;1.55;0.32;;;;;;;;;;5051937;28;20028;-87
2023/11/02 13:17:19;;;;;;;8.27;0.80;;;;;;;;;;5054535;28;20032;-87
2023/11/02 13:19:44;;;;;;;3.63;0.75;;;;;;;;;;5063539;28;20465;-86
2023/11/02 13:22:11;;;;;;;3.17;0.65;;;;;;;;;;5052369;28;20028;-87
2023/11/02 13:24:36;;;;;;;3.75;0.20;;;;;;;;;;5051986;28;20469;-87
2023/11/02 13:27:03;;;;;;;2.83;0.40;;;;;;;;;;5052376;28;20159;-87
2023/11/02 13:29:30;;;;;;;7.68;1.27;;;;;;;;;;5062122;28;20432;-86
2023/11/02 13:31:55;;;;;;;7.43;1.08;;;;;;;;;;5051354;28;20029;-87
2023/11/02 13:34:21;;;;;;;4.65;0.68;;;;;;;;;;5051890;28;20045;-86
2023/11/02 13:36:46;;;;;;;7.68;0.73;;;;;;;;;;5054214;28;20021;-86
2023/11/02 13:39:12;;;;;;;6.88;0.80;;;;;;;;;;5051030;28;20025;-86
2023/11/02 13:41:37;;;;;;;5.50;0.60;;;;;;;;;;5058739;28;20016;-88
2023/11/02 13:44:03;;;;;;;3.45;0.82;;;;;;;;;;5072095;28;20029;-88
2023/11/02 13:46:28;;;;;;;4.20;0.90;;;;;;;;;;5057994;28;20051;-87
2023/11/02 13:48:54;;;;;;;4.20;0.75;;;;;;;;;;5071934;28;20031;-85
2023/11/02 13:51:20;;;;;;;6.43;0.82;;;;;;;;;;5054766;28;20398;-89
2023/11/02 13:53:45;;;;;;;12.27;1.00;;;;;;;;;;5061712;28;20032;-88
2023/11/02 13:56:11;;;;;;;8.07;0.80;;;;;;;;;;5072225;28;20468;-88
2023/11/02 13:58:38;;;;;;;3.25;0.80;;;;;;;;;;5051365;28;20025;-88
2023/11/02 14:01:03;;;;;;;7.05;1.48;;;;;;;;;;5051628;28;20399;-87
2023/11/02 14:03:28;;;;;;;8.52;1.15;;;;;;;;;;5056191;28;20012;-85
2023/11/02 14:05:54;;;;;;;6.40;1.17;;;;;;;;;;5066346;28;20048;-86
2023/11/02 14:08:19;;;;;;;5.63;0.90;;;;;;;;;;5073065;28;20345;-86
2023/11/02 14:10:46;;;;;;;5.15;0.98;;;;;;;;;;5052451;28;20025;-86
2023/11/02 14:13:12;;;;;;;3.55;0.80;;;;;;;;;;5051215;28;20025;-86
2023/11/02 14:15:37;;;;;;;4.88;1.27;;;;;;;;;;5053892;28;20068;-87
2023/11/02 14:18:02;;;;;;;2.75;0.50;;;;;;;;;;5063760;28;20040;-87
2023/11/02 14:20:28;;;;;;;7.45;1.08;;;;;;;;;;5051847;28;20017;-86
2023/11/02 14:22:54;;;;;;;3.03;0.50;;;;;;;;;;5068129;28;20044;-86
2023/11/02 14:25:19;;;;;;;6.60;0.82;;;;;;;;;;5054485;28;20021;-86
2023/11/02 14:27:47;;;;;;;8.52;0.82;;;;;;;;;;5070147;28;20338;-85
2023/11/02 14:30:15;;;;;;;3.20;0.63;;;;;;;;;;5061710;28;20124;-85
2023/11/02 14:32:40;;;;;;;12.25;0.98;;;;;;;;;;5105711;28;20024;-86
2023/11/02 14:35:06;;;;;;;7.22;0.98;;;;;;;;;;5074639;28;20027;-84
2023/11/02 14:37:31;;;;;;;10.05;1.77;;;;;;;;;;5074089;28;20042;-83
2023/11/02 14:39:57;;;;;;;8.52;0.95;;;;;;;;;;5066831;28;20091;-85
2023/11/02 14:42:24;;;;;;;2.72;0.63;;;;;;;;;;5067407;28;20017;-84
2023/11/02 14:44:49;;;;;;;3.85;0.60;;;;;;;;;;5059834;28;20112;-84
2023/11/02 14:47:17;;;;;;;2.60;0.70;;;;;;;;;;5066053;28;20079;-84
2023/11/02 14:49:43;;;;;;;6.90;0.82;;;;;;;;;;5059650;28;20111;-85